createdAt,value
2018-03-24T00:01:03.714Z,5.39
2018-03-24T00:06:04.142Z,5.29
2018-03-24T00:11:03.686Z,5.19
2018-03-24T00:16:04.022Z,5.09
2018-03-24T00:21:03.539Z,4.89
2018-03-24T00:26:04.055Z,4.89
2018-03-24T00:31:04.843Z,4.89
2018-03-24T00:36:03.520Z,4.69
2018-03-24T00:41:04.124Z,4.29
2018-03-24T00:46:03.424Z,4.19
2018-03-24T00:51:03.903Z,3.99
2018-03-24T00:56:04.096Z,3.79
2018-03-24T01:01:05.656Z,3.59
2018-03-24T01:06:03.861Z,3.69
2018-03-24T01:11:03.427Z,3.69
2018-03-24T01:16:03.715Z,3.29
2018-03-24T01:21:03.264Z,3.19
2018-03-24T01:26:03.458Z,3.19
2018-03-24T01:31:03.794Z,2.99
2018-03-24T01:36:04.261Z,2.79
2018-03-24T01:41:03.830Z,2.79
2018-03-24T01:46:04.146Z,2.79
2018-03-24T01:51:03.592Z,2.59
2018-03-24T01:56:03.776Z,2.49
2018-03-24T02:01:04.096Z,2.39
2018-03-24T02:06:03.557Z,2.09
2018-03-24T02:11:03.237Z,1.99
2018-03-24T02:16:03.475Z,1.69
2018-03-24T02:21:03.951Z,1.59
2018-03-24T02:26:03.215Z,1.49
2018-03-24T02:31:03.500Z,1.49
2018-03-24T02:36:03.970Z,1.19
2018-03-24T02:41:03.564Z,1.19
2018-03-24T02:46:03.805Z,1.09
2018-03-24T02:51:03.275Z,0.99
2018-03-24T02:56:03.475Z,0.89
2018-03-24T03:01:03.812Z,0.79
2018-03-24T03:06:03.273Z,0.89
2018-03-24T03:11:03.882Z,1.19
2018-03-24T03:16:03.189Z,0.79
2018-03-24T03:21:03.659Z,0.59
2018-03-24T03:26:03.873Z,0.49
2018-03-24T03:31:03.155Z,0.49
2018-03-24T03:36:03.674Z,0.59
2018-03-24T03:41:03.263Z,0.49
2018-03-24T03:46:03.534Z,0.39
2018-03-24T03:51:03.921Z,0.39
2018-03-24T03:56:03.203Z,0.29
2018-03-24T04:01:03.492Z,0.29
2018-03-24T04:06:03.950Z,0.19
2018-03-24T04:11:03.581Z,0.19
2018-03-24T04:16:03.881Z,0.19
2018-03-24T04:21:03.332Z,0.09
2018-03-24T04:26:03.528Z,0.09
2018-03-24T04:31:03.843Z,0.09
2018-03-24T04:36:03.292Z,0.19
2018-03-24T04:41:03.873Z,0.19
2018-03-24T04:46:03.169Z,-0.01
2018-03-24T04:51:03.646Z,0.09
2018-03-24T04:56:03.872Z,-0.01
2018-03-24T05:01:03.162Z,-0.01
2018-03-24T05:06:03.624Z,-0.11
2018-03-24T05:11:03.227Z,0.19
2018-03-24T05:16:03.522Z,0.09
2018-03-24T05:21:04.026Z,-0.11
2018-03-24T05:26:03.904Z,-0.11
2018-03-24T05:31:03.238Z,-0.11
2018-03-24T05:36:03.723Z,-0.01
2018-03-24T05:41:03.311Z,-0.11
2018-03-24T05:46:03.575Z,-0.11
2018-03-24T05:51:04.078Z,-0.11
2018-03-24T05:56:03.258Z,-0.01
2018-03-24T06:01:03.544Z,0.29
2018-03-24T06:06:04.053Z,0.29
2018-03-24T06:11:03.646Z,0.29
2018-03-24T06:16:03.929Z,0.39
2018-03-24T06:21:03.459Z,0.59
2018-03-24T06:26:03.629Z,0.69
2018-03-24T06:31:03.966Z,0.99
2018-03-24T06:36:03.422Z,1.29
2018-03-24T06:41:04.026Z,1.79
2018-03-24T06:46:03.296Z,1.79
2018-03-24T06:51:03.816Z,1.79
2018-03-24T06:56:03.969Z,1.89
2018-03-24T07:01:03.271Z,1.99
2018-03-24T07:06:03.734Z,2.19
2018-03-24T07:11:03.281Z,2.39
2018-03-24T07:16:03.587Z,2.49
2018-03-24T07:21:04.109Z,2.69
2018-03-24T07:26:03.348Z,2.79
2018-03-24T07:31:03.587Z,2.89
2018-03-24T07:36:04.038Z,3.19
2018-03-24T07:41:03.650Z,3.59
2018-03-24T07:46:03.939Z,3.59
2018-03-24T07:51:03.445Z,3.89
2018-03-24T07:56:03.610Z,3.89
2018-03-24T08:01:03.959Z,3.99
2018-03-24T08:06:03.386Z,4.09
2018-03-24T08:11:04.003Z,4.39
2018-03-24T08:16:03.311Z,4.79
2018-03-24T08:21:03.815Z,5.09
2018-03-24T08:26:04.017Z,5.69
2018-03-24T08:31:03.302Z,5.79
2018-03-24T08:36:03.721Z,5.99
2018-03-24T08:41:03.316Z,6.19
2018-03-24T08:46:03.601Z,6.29
2018-03-24T08:51:04.079Z,6.49
2018-03-24T08:56:03.332Z,6.79
2018-03-24T09:01:03.578Z,6.99
2018-03-24T09:06:04.037Z,7.29
2018-03-24T09:11:03.652Z,7.49
2018-03-24T09:16:03.907Z,7.79
2018-03-24T09:21:03.448Z,7.59
2018-03-24T09:26:03.616Z,7.79
2018-03-24T09:31:03.892Z,7.99
2018-03-24T09:36:03.437Z,8.49
2018-03-24T09:41:03.984Z,8.39
2018-03-24T09:46:03.290Z,8.39
2018-03-24T09:51:03.708Z,8.79
2018-03-24T09:56:03.944Z,9.19
2018-03-24T10:01:03.265Z,9.29
2018-03-24T10:06:03.893Z,9.79
2018-03-24T10:11:03.590Z,9.59
2018-03-24T10:16:03.646Z,9.29
2018-03-24T10:21:04.147Z,9.49
2018-03-24T10:26:03.352Z,9.89
2018-03-24T10:31:03.618Z,9.99
2018-03-24T10:36:04.116Z,10.45
2018-03-24T10:41:03.645Z,10.86
2018-03-24T10:46:03.936Z,10.51
2018-03-24T10:51:03.421Z,10.82
2018-03-24T10:56:03.617Z,10.90
2018-03-24T11:01:03.911Z,10.64
2018-03-24T11:06:03.379Z,10.70
2018-03-24T11:11:04.000Z,10.54
2018-03-24T11:16:03.274Z,10.47
2018-03-24T11:21:03.787Z,10.72
2018-03-24T11:26:03.979Z,10.62
2018-03-24T11:31:03.387Z,10.57
2018-03-24T11:36:03.898Z,10.47
2018-03-24T11:41:03.660Z,10.54
2018-03-24T11:46:03.714Z,10.74
2018-03-24T11:51:04.146Z,10.49
2018-03-24T11:56:03.985Z,10.80
2018-03-24T12:01:03.577Z,10.90
2018-03-24T12:06:04.076Z,10.67
2018-03-24T12:11:03.613Z,10.67
2018-03-24T12:16:05.043Z,10.93
2018-03-24T12:21:03.449Z,10.97
2018-03-24T12:26:04.645Z,10.76
2018-03-24T12:31:03.993Z,10.61
2018-03-24T12:36:03.429Z,10.67
2018-03-24T12:41:04.610Z,10.51
2018-03-24T12:46:03.410Z,10.48
2018-03-24T12:51:04.556Z,10.39
2018-03-24T12:56:04.228Z,10.52
2018-03-24T13:01:05.002Z,9.41
2018-03-24T13:06:03.947Z,9.13
2018-03-24T13:11:04.278Z,10.05
2018-03-24T13:16:04.760Z,10.54
2018-03-24T13:21:04.840Z,10.59
2018-03-24T13:26:03.901Z,10.91
2018-03-24T13:31:03.802Z,10.34
2018-03-24T13:36:05.004Z,9.85
2018-03-24T13:41:03.815Z,10.22
2018-03-24T13:46:04.557Z,10.02
2018-03-24T13:51:03.601Z,11.02
2018-03-24T13:56:03.627Z,10.86
2018-03-24T14:01:05.163Z,10.00
2018-03-24T14:06:04.504Z,10.69
2018-03-24T14:11:04.179Z,11.02
2018-03-24T14:16:03.424Z,11.02
2018-03-24T14:21:03.908Z,11.02
2018-03-24T14:26:05.031Z,11.02
2018-03-24T14:31:03.831Z,11.02
2018-03-24T14:36:04.020Z,11.02
2018-03-24T14:41:03.957Z,11.02
2018-03-24T14:46:03.633Z,10.64
2018-03-24T14:51:04.916Z,10.64
2018-03-24T14:56:04.095Z,10.64
2018-03-24T15:01:04.957Z,10.64
2018-03-24T15:06:04.199Z,10.64
2018-03-24T15:11:03.736Z,10.64
2018-03-24T15:16:05.235Z,10.64
2018-03-24T15:21:04.626Z,10.64
2018-03-24T15:26:05.049Z,10.64
2018-03-24T15:31:04.668Z,10.64
2018-03-24T15:36:04.403Z,10.64
2018-03-24T15:41:05.063Z,10.64
2018-03-24T15:46:04.214Z,10.64
2018-03-24T15:51:05.043Z,10.64
2018-03-24T15:56:05.111Z,10.44
2018-03-24T16:01:04.324Z,10.44
2018-03-24T16:06:05.063Z,10.44
2018-03-24T16:11:04.394Z,10.44
2018-03-24T16:16:05.618Z,10.44
2018-03-24T16:21:05.491Z,10.44
2018-03-24T16:26:04.782Z,10.44
2018-03-24T16:31:05.440Z,10.44
2018-03-24T16:36:05.531Z,10.44
2018-03-24T16:41:05.132Z,10.44
2018-03-24T16:46:05.761Z,10.44
2018-03-24T16:51:04.810Z,10.44
2018-03-24T16:56:05.030Z,10.44
2018-03-24T17:01:05.372Z,10.44
2018-03-24T17:06:04.824Z,10.44
2018-03-24T17:11:05.426Z,10.44
2018-03-24T17:16:04.503Z,10.44
2018-03-24T17:21:05.078Z,10.44
2018-03-24T17:26:05.379Z,10.44
2018-03-24T17:31:04.761Z,10.44
2018-03-24T17:36:05.149Z,10.44
2018-03-24T17:41:04.714Z,10.44
2018-03-24T17:46:05.062Z,10.44
2018-03-24T17:51:05.511Z,10.44
2018-03-24T17:56:04.794Z,10.44
2018-03-24T18:01:04.981Z,10.44
2018-03-24T18:06:05.507Z,10.44
2018-03-24T18:11:05.171Z,10.44
2018-03-24T18:16:05.584Z,10.44
2018-03-24T18:21:05.464Z,10.44
2018-03-24T18:26:05.138Z,10.44
2018-03-24T18:31:05.801Z,10.44
2018-03-24T18:36:04.921Z,10.44
2018-03-24T18:41:05.936Z,10.44
2018-03-24T18:46:04.942Z,10.44
2018-03-24T18:51:05.240Z,10.44
2018-03-24T18:56:05.861Z,10.44
2018-03-24T19:01:04.775Z,10.44
2018-03-24T19:06:05.250Z,10.44
2018-03-24T19:11:05.000Z,10.44
2018-03-24T19:16:05.240Z,10.44
2018-03-24T19:21:05.095Z,10.44
2018-03-24T19:26:05.088Z,6.99
2018-03-24T19:31:05.422Z,6.99
2018-03-24T19:37:11.207Z,6.99
2018-03-24T19:41:05.394Z,6.99
2018-03-24T19:46:06.748Z,6.99
2018-03-24T19:51:05.397Z,6.99
2018-03-24T19:56:05.163Z,6.99
2018-03-24T20:01:05.535Z,6.99
2018-03-24T20:06:05.122Z,6.99
2018-03-24T20:11:06.108Z,6.99
2018-03-24T20:16:04.954Z,6.99
2018-03-24T20:21:05.466Z,6.99
2018-03-24T20:26:05.600Z,6.99
2018-03-24T20:31:04.970Z,6.99
2018-03-24T20:51:06.006Z,6.99
2018-03-24T20:56:05.526Z,6.99
2018-03-24T21:01:04.946Z,6.99
2018-03-24T21:06:05.231Z,6.99
2018-03-24T21:11:04.942Z,6.99
2018-03-24T21:16:05.760Z,6.99
2018-03-24T21:21:05.598Z,6.99
2018-03-24T21:26:05.353Z,6.99
2018-03-24T21:31:05.075Z,3.69
2018-03-24T21:36:05.948Z,3.39
2018-03-24T21:41:05.241Z,3.39
2018-03-24T21:46:05.876Z,2.99
2018-03-24T21:51:04.916Z,3.19
2018-03-24T21:56:05.357Z,3.19
2018-03-24T22:01:07.744Z,3.29
2018-03-24T22:06:05.563Z,2.89
2018-03-24T22:11:05.475Z,2.89
2018-03-24T22:16:04.584Z,2.89
2018-03-24T22:21:05.239Z,2.89
2018-03-24T22:26:05.377Z,2.49
2018-03-24T22:31:04.810Z,2.39
2018-03-24T22:36:05.142Z,2.29
2018-03-24T22:41:04.935Z,2.29
2018-03-24T22:46:05.139Z,2.29
2018-03-24T22:51:05.568Z,2.29
2018-03-24T22:56:04.833Z,2.29
2018-03-24T23:01:05.161Z,2.29
2018-03-24T23:06:05.636Z,2.29
2018-03-24T23:11:05.252Z,2.29
2018-03-24T23:16:04.788Z,2.29
2018-03-24T23:21:04.093Z,2.29
2018-03-24T23:26:03.894Z,2.29
2018-03-24T23:31:04.175Z,2.29
2018-03-24T23:36:03.641Z,2.29
2018-03-24T23:41:03.239Z,2.29
2018-03-24T23:46:03.521Z,2.29
2018-03-24T23:51:04.014Z,2.29
2018-03-24T23:56:04.213Z,2.29
